createdAt,value
2023-03-14T00:01:39.188Z,98089.97
2023-03-14T00:04:11.274Z,98090.34
2023-03-14T00:06:43.327Z,98088.48
2023-03-14T00:09:15.415Z,98083.05
2023-03-14T00:11:47.622Z,98079.48
2023-03-14T00:14:19.708Z,98071.98
2023-03-14T00:16:52.212Z,98079.59
2023-03-14T00:19:24.256Z,98089.08
2023-03-14T00:21:56.253Z,98088.62
2023-03-14T00:24:28.256Z,98084.88
2023-03-14T00:27:01.663Z,98084.41
2023-03-14T00:29:33.808Z,98082.89
2023-03-14T00:32:06.094Z,98082.40
2023-03-14T00:34:38.211Z,98077.10
2023-03-14T00:37:10.235Z,98068.20
2023-03-14T00:39:44.418Z,98055.84
2023-03-14T00:42:16.526Z,98049.81
2023-03-14T00:44:48.663Z,98031.28
2023-03-14T00:47:20.808Z,98008.84
2023-03-14T00:49:53.387Z,97998.02
2023-03-14T00:52:25.431Z,97996.97
2023-03-14T00:54:57.580Z,97988.70
2023-03-14T00:57:30.069Z,97983.88
2023-03-14T01:00:02.119Z,97985.43
2023-03-14T01:02:34.218Z,97977.71
2023-03-14T01:05:08.475Z,97980.65
2023-03-14T01:07:40.732Z,97964.88
2023-03-14T01:10:14.230Z,97962.31
2023-03-14T01:12:46.297Z,97971.41
2023-03-14T01:15:18.448Z,97977.09
2023-03-14T01:17:51.190Z,97978.80
2023-03-14T01:20:23.352Z,97979.14
2023-03-14T01:22:55.459Z,97983.63
2023-03-14T01:25:28.115Z,97990.67
2023-03-14T01:28:01.900Z,97987.94
2023-03-14T01:30:34.341Z,97992.21
2023-03-14T01:33:06.396Z,97989.45
2023-03-14T01:35:38.421Z,97979.52
2023-03-14T01:38:10.653Z,97979.00
2023-03-14T01:40:47.198Z,97973.66
2023-03-14T01:43:21.879Z,97972.10
2023-03-14T01:46:26.044Z,97975.01
2023-03-14T01:49:06.509Z,97972.25
2023-03-14T01:51:46.073Z,97972.02
2023-03-14T01:54:24.802Z,97976.63
2023-03-14T01:57:02.609Z,97976.62
2023-03-14T01:59:36.688Z,97971.81
2023-03-14T02:02:11.673Z,97958.63
2023-03-14T02:04:44.948Z,97955.69
2023-03-14T02:07:22.026Z,97944.09
2023-03-14T02:10:10.680Z,97935.61
2023-03-14T02:12:43.146Z,97917.65
2023-03-14T02:15:20.543Z,97907.96
2023-03-14T02:18:06.405Z,97899.31
2023-03-14T02:21:21.937Z,97897.73
2023-03-14T02:24:06.521Z,97906.31
2023-03-14T02:26:47.116Z,97907.31
2023-03-14T02:29:19.709Z,97914.87
2023-03-14T02:31:52.417Z,97912.20
2023-03-14T02:34:24.916Z,97906.41
2023-03-14T02:36:57.546Z,97907.13
2023-03-14T02:39:38.020Z,97898.97
2023-03-14T02:42:10.736Z,97897.08
2023-03-14T02:44:54.450Z,97890.78
2023-03-14T02:47:32.309Z,97885.91
2023-03-14T02:50:10.387Z,97887.05
2023-03-14T02:52:42.532Z,97888.32
2023-03-14T02:55:14.651Z,97891.35
2023-03-14T02:57:47.918Z,97895.77
2023-03-14T03:00:22.260Z,97906.26
2023-03-14T03:02:54.303Z,97919.54
2023-03-14T03:05:26.298Z,97951.85
2023-03-14T03:07:58.397Z,97982.96
2023-03-14T03:10:31.741Z,98008.80
2023-03-14T03:13:03.823Z,98029.02
2023-03-14T03:15:36.178Z,98029.11
2023-03-14T03:18:08.870Z,98033.15
2023-03-14T03:20:41.248Z,98038.20
2023-03-14T03:23:13.284Z,98034.98
2023-03-14T03:25:49.867Z,98038.84
2023-03-14T03:28:22.440Z,98024.45
2023-03-14T03:30:55.583Z,98027.77
2023-03-14T03:33:27.991Z,98032.97
2023-03-14T03:36:00.053Z,98032.83
2023-03-14T03:38:35.825Z,98033.73
2023-03-14T03:41:10.500Z,98032.39
2023-03-14T03:43:42.693Z,98034.48
2023-03-14T03:46:15.716Z,98031.23
2023-03-14T03:48:47.816Z,98026.81
2023-03-14T03:51:19.984Z,98024.77
2023-03-14T03:53:52.759Z,98023.95
2023-03-14T03:56:30.156Z,98017.95
2023-03-14T03:59:02.254Z,98005.09
2023-03-14T04:01:34.315Z,97993.61
2023-03-14T04:04:06.720Z,97985.73
2023-03-14T04:06:39.344Z,97979.52
2023-03-14T04:09:12.036Z,97986.92
2023-03-14T04:11:49.780Z,97985.70
2023-03-14T04:14:25.250Z,97978.36
2023-03-14T04:17:07.841Z,97963.82
2023-03-14T04:19:40.057Z,97955.28
2023-03-14T04:22:12.348Z,97958.07
2023-03-14T04:24:54.318Z,97953.16
2023-03-14T04:27:27.009Z,97942.74
2023-03-14T04:29:59.736Z,97933.48
2023-03-14T04:32:51.573Z,97920.95
2023-03-14T04:35:25.345Z,97909.66
2023-03-14T04:38:01.556Z,97909.77
2023-03-14T04:40:35.694Z,97918.86
2023-03-14T04:43:12.246Z,97924.31
2023-03-14T04:45:51.133Z,97927.16
2023-03-14T04:48:23.828Z,97936.25
2023-03-14T04:50:57.068Z,97933.46
2023-03-14T04:53:30.673Z,97938.77
2023-03-14T04:56:05.548Z,97942.70
2023-03-14T04:58:42.858Z,97942.54
2023-03-14T05:01:14.982Z,97933.60
2023-03-14T05:03:46.930Z,97936.86
2023-03-14T05:06:38.238Z,97931.55
2023-03-14T05:09:18.949Z,97925.23
2023-03-14T05:12:04.481Z,97907.07
2023-03-14T05:14:42.617Z,97906.58
2023-03-14T05:17:25.289Z,97901.80
2023-03-14T05:20:16.655Z,97888.59
2023-03-14T05:23:01.156Z,97895.67
2023-03-14T05:25:53.488Z,97901.88
2023-03-14T05:29:03.677Z,97895.88
2023-03-14T05:31:56.018Z,97892.79
2023-03-14T05:34:50.255Z,97881.95
2023-03-14T05:37:36.906Z,97884.16
2023-03-14T05:40:27.877Z,97877.95
2023-03-14T05:43:16.075Z,97873.46
2023-03-14T05:46:17.402Z,97862.10
2023-03-14T05:49:07.131Z,97851.32
2023-03-14T05:51:49.018Z,97835.36
2023-03-14T05:54:50.383Z,97814.23
2023-03-14T05:57:32.165Z,97794.84
2023-03-14T06:00:24.441Z,97799.83
2023-03-14T06:03:07.767Z,97808.58
2023-03-14T06:05:40.578Z,97808.23
2023-03-14T06:08:12.574Z,97799.66
2023-03-14T06:10:45.001Z,97790.73
2023-03-14T06:13:17.592Z,97786.60
2023-03-14T06:15:50.091Z,97791.19
2023-03-14T06:18:22.245Z,97799.02
2023-03-14T06:20:57.543Z,97803.71
2023-03-14T06:23:31.628Z,97801.00
2023-03-14T06:26:04.242Z,97788.85
2023-03-14T06:28:36.751Z,97773.45
2023-03-14T06:31:10.305Z,97765.98
2023-03-14T06:33:48.748Z,97778.65
2023-03-14T06:36:21.614Z,97787.36
2023-03-14T06:38:54.181Z,97786.08
2023-03-14T06:41:27.322Z,97788.05
2023-03-14T06:43:59.584Z,97785.75
2023-03-14T06:46:32.194Z,97787.77
2023-03-14T06:49:04.300Z,97796.83
2023-03-14T06:51:38.394Z,97796.44
2023-03-14T06:54:11.449Z,97796.41
2023-03-14T06:56:43.758Z,97809.97
2023-03-14T06:59:16.260Z,97814.22
2023-03-14T07:01:52.036Z,97817.30
2023-03-14T07:04:24.439Z,97825.37
2023-03-14T07:06:56.550Z,97838.27
2023-03-14T07:09:29.866Z,97813.84
2023-03-14T07:12:05.324Z,97829.81
2023-03-14T07:14:37.482Z,97835.56
2023-03-14T07:17:09.926Z,97837.51
2023-03-14T07:19:42.279Z,97843.77
2023-03-14T07:22:14.879Z,97850.64
2023-03-14T07:24:46.994Z,97858.00
2023-03-14T07:27:19.394Z,97867.10
2023-03-14T07:29:52.561Z,97867.41
2023-03-14T07:32:24.999Z,97861.70
2023-03-14T07:34:57.572Z,97858.72
2023-03-14T07:37:29.792Z,97858.80
2023-03-14T07:40:02.475Z,97854.64
2023-03-14T07:42:36.338Z,97850.83
2023-03-14T07:45:24.824Z,97845.57
2023-03-14T07:47:58.781Z,97843.77
2023-03-14T07:50:31.176Z,97840.06
2023-03-14T07:53:03.343Z,97840.95
2023-03-14T07:55:35.359Z,97843.61
2023-03-14T07:58:07.752Z,97843.11
2023-03-14T08:00:40.037Z,97845.21
2023-03-14T08:03:12.284Z,97834.88
2023-03-14T08:05:45.719Z,97838.77
2023-03-14T08:08:18.064Z,97846.21
2023-03-14T08:10:50.145Z,97848.35
2023-03-14T08:13:22.502Z,97844.79
2023-03-14T08:15:54.533Z,97850.15
2023-03-14T08:18:26.648Z,97845.21
2023-03-14T08:20:59.092Z,97841.31
2023-03-14T08:23:31.212Z,97852.79
2023-03-14T08:26:03.429Z,97849.49
2023-03-14T08:28:35.509Z,97857.56
2023-03-14T08:31:08.217Z,97861.00
2023-03-14T08:33:40.474Z,97863.75
2023-03-14T08:36:13.504Z,97864.06
2023-03-14T08:38:45.589Z,97869.23
2023-03-14T08:41:17.581Z,97876.77
2023-03-14T08:43:49.658Z,97885.88
2023-03-14T08:46:21.743Z,97885.67
2023-03-14T08:48:53.898Z,97887.89
2023-03-14T08:51:25.951Z,97883.40
2023-03-14T08:53:58.164Z,97887.45
2023-03-14T08:56:30.320Z,97895.55
2023-03-14T08:59:02.282Z,97897.63
2023-03-14T09:01:34.422Z,97897.73
2023-03-14T09:04:08.062Z,97891.52
2023-03-14T09:06:40.393Z,97894.81
2023-03-14T09:09:12.458Z,97892.23
2023-03-14T09:11:45.264Z,97900.31
2023-03-14T09:14:17.528Z,97912.04
2023-03-14T09:16:49.855Z,97914.04
2023-03-14T09:19:22.518Z,97898.84
2023-03-14T09:21:54.737Z,97907.09
2023-03-14T09:24:26.793Z,97897.52
2023-03-14T09:27:00.205Z,97884.40
2023-03-14T09:29:32.988Z,97883.23
2023-03-14T09:32:05.671Z,97887.23
2023-03-14T09:34:37.878Z,97904.37
2023-03-14T09:37:10.010Z,97898.58
2023-03-14T09:39:42.263Z,97884.15
2023-03-14T09:42:20.045Z,97863.34
2023-03-14T09:44:58.913Z,97863.67
2023-03-14T09:47:32.145Z,97886.30
2023-03-14T09:50:07.957Z,97899.80
2023-03-14T09:52:45.193Z,97900.64
2023-03-14T09:55:20.729Z,97900.23
2023-03-14T09:57:56.887Z,97912.77
2023-03-14T10:00:31.779Z,97930.10
2023-03-14T10:03:22.500Z,97930.39
2023-03-14T10:05:55.105Z,97925.01
2023-03-14T10:08:27.203Z,97921.79
2023-03-14T10:11:00.819Z,97930.48
2023-03-14T10:13:32.955Z,97936.89
2023-03-14T10:16:07.428Z,97945.02
2023-03-14T10:18:39.588Z,97942.30
2023-03-14T10:21:23.653Z,97940.44
2023-03-14T10:23:56.157Z,97933.95
2023-03-14T10:26:34.436Z,97933.45
2023-03-14T10:29:10.854Z,97933.81
2023-03-14T10:31:56.280Z,97935.02
2023-03-14T10:34:30.596Z,97933.50
2023-03-14T10:37:08.594Z,97938.49
2023-03-14T10:39:47.883Z,97939.56
2023-03-14T10:42:25.227Z,97942.27
2023-03-14T10:45:02.451Z,97941.95
2023-03-14T10:47:35.806Z,97946.06
2023-03-14T10:50:28.460Z,97949.69
2023-03-14T10:53:06.562Z,97956.55
2023-03-14T10:55:47.339Z,97961.89
2023-03-14T10:58:25.974Z,97964.96
2023-03-14T11:01:06.507Z,97966.17
2023-03-14T11:03:43.807Z,97969.23
2023-03-14T11:06:20.868Z,97971.12
2023-03-14T11:08:59.749Z,97963.17
2023-03-14T11:11:33.448Z,97955.75
2023-03-14T11:14:18.866Z,97958.87
2023-03-14T11:17:00.606Z,97962.14
2023-03-14T11:19:52.014Z,97956.32
2023-03-14T11:22:35.658Z,97959.23
2023-03-14T11:25:28.690Z,97954.19
2023-03-14T11:28:10.597Z,97956.37
2023-03-14T11:30:52.517Z,97950.81
2023-03-14T11:33:30.308Z,97959.50
2023-03-14T11:36:10.037Z,97963.19
2023-03-14T11:38:50.288Z,97959.48
2023-03-14T11:41:27.516Z,97952.01
2023-03-14T11:44:02.176Z,97958.10
2023-03-14T11:46:39.022Z,97952.83
2023-03-14T11:49:23.558Z,97938.02
2023-03-14T11:51:59.362Z,97915.98
2023-03-14T11:54:44.010Z,97911.55
2023-03-14T11:57:19.022Z,97923.61
2023-03-14T11:59:58.254Z,97931.00
2023-03-14T12:02:42.619Z,97929.03
2023-03-14T12:05:34.963Z,97918.41
2023-03-14T12:08:28.060Z,97913.09
2023-03-14T12:11:05.504Z,97902.44
2023-03-14T12:13:41.334Z,97894.00
2023-03-14T12:16:33.108Z,97890.23
2023-03-14T12:19:28.591Z,97888.83
2023-03-14T12:22:08.219Z,97890.38
2023-03-14T12:24:48.038Z,97890.32
2023-03-14T12:27:43.080Z,97884.30
2023-03-14T12:30:32.201Z,97882.39
2023-03-14T12:33:34.069Z,97890.48
2023-03-14T12:36:29.722Z,97884.68
2023-03-14T12:39:12.760Z,97885.23
2023-03-14T12:41:52.051Z,97877.52
2023-03-14T12:44:45.707Z,97871.98
2023-03-14T12:47:56.994Z,97873.05
2023-03-14T12:50:37.202Z,97872.35
2023-03-14T12:53:54.678Z,97877.73
2023-03-14T12:56:40.477Z,97883.73
2023-03-14T12:59:38.306Z,97890.76
2023-03-14T13:02:25.583Z,97888.60
2023-03-14T13:05:06.479Z,97880.80
2023-03-14T13:08:06.822Z,97885.08
2023-03-14T13:10:50.099Z,97886.16
2023-03-14T13:13:27.982Z,97888.79
2023-03-14T13:16:04.980Z,97884.50
2023-03-14T13:18:41.204Z,97886.53
2023-03-14T13:21:16.990Z,97885.11
2023-03-14T13:24:01.004Z,97876.50
2023-03-14T13:26:41.060Z,97880.06
2023-03-14T13:29:22.553Z,97878.00
2023-03-14T13:31:57.779Z,97879.20
2023-03-14T13:34:32.903Z,97886.58
2023-03-14T13:37:05.237Z,97888.27
2023-03-14T13:39:41.898Z,97893.03
2023-03-14T13:42:19.510Z,97898.16
2023-03-14T13:44:53.668Z,97904.85
2023-03-14T13:47:28.517Z,97904.01
2023-03-14T13:50:02.458Z,97902.64
2023-03-14T13:52:38.330Z,97900.39
2023-03-14T13:55:18.768Z,97901.77
2023-03-14T13:57:55.617Z,97904.64
2023-03-14T14:00:31.161Z,97900.10
2023-03-14T14:03:04.191Z,97897.12
2023-03-14T14:05:38.718Z,97896.73
2023-03-14T14:08:14.124Z,97894.41
2023-03-14T14:10:51.206Z,97891.93
2023-03-14T14:13:26.876Z,97887.27
2023-03-14T14:16:02.101Z,97888.47
2023-03-14T14:18:35.846Z,97889.30
2023-03-14T14:21:10.648Z,97886.35
2023-03-14T14:23:42.871Z,97884.57
2023-03-14T14:26:21.223Z,97889.02
2023-03-14T14:29:03.819Z,97884.80
2023-03-14T14:31:36.073Z,97883.41
2023-03-14T14:34:21.103Z,97885.46
2023-03-14T14:36:53.231Z,97876.86
2023-03-14T14:39:30.064Z,97875.30
2023-03-14T14:42:02.268Z,97869.38
2023-03-14T14:44:36.979Z,97865.75
2023-03-14T14:47:09.613Z,97856.64
2023-03-14T14:49:41.864Z,97849.44
2023-03-14T14:52:18.901Z,97848.08
2023-03-14T14:54:55.717Z,97834.82
2023-03-14T14:57:31.568Z,97829.92
2023-03-14T15:00:12.132Z,97820.92
2023-03-14T15:02:47.968Z,97814.36
2023-03-14T15:05:21.909Z,97810.94
2023-03-14T15:07:54.452Z,97813.50
2023-03-14T15:10:27.811Z,97809.02
2023-03-14T15:13:00.273Z,97792.98
2023-03-14T15:15:34.039Z,97783.91
2023-03-14T15:18:11.662Z,97791.61
2023-03-14T15:20:44.164Z,97794.30
2023-03-14T15:23:18.207Z,97789.83
2023-03-14T15:25:55.918Z,97785.41
2023-03-14T15:28:30.902Z,97782.55
2023-03-14T15:31:03.695Z,97792.17
2023-03-14T15:33:35.790Z,97795.10
2023-03-14T15:36:18.896Z,97800.90
2023-03-14T15:38:50.986Z,97813.20
2023-03-14T15:41:23.824Z,97821.89
2023-03-14T15:43:56.346Z,97828.17
2023-03-14T15:46:30.898Z,97837.66
2023-03-14T15:49:03.500Z,97847.34
2023-03-14T15:51:35.588Z,97850.10
2023-03-14T15:54:07.735Z,97855.73
2023-03-14T15:56:40.962Z,97855.27
2023-03-14T15:59:13.319Z,97860.77
2023-03-14T16:01:45.477Z,97861.99
2023-03-14T16:04:17.565Z,97867.69
2023-03-14T16:06:49.842Z,97864.05
2023-03-14T16:09:24.763Z,97864.05
2023-03-14T16:11:57.260Z,97856.46
2023-03-14T16:14:29.396Z,97853.91
2023-03-14T16:17:01.551Z,97852.10
2023-03-14T16:19:34.353Z,97841.32
2023-03-14T16:22:06.712Z,97842.56
2023-03-14T16:24:39.754Z,97838.31
2023-03-14T16:27:14.704Z,97838.23
2023-03-14T16:29:49.894Z,97843.15
2023-03-14T16:32:22.336Z,97849.59
2023-03-14T16:34:54.716Z,97846.17
2023-03-14T16:37:28.478Z,97843.23
2023-03-14T16:40:12.467Z,97845.98
2023-03-14T16:45:39.783Z,97841.49
2023-03-14T16:48:12.114Z,97838.29
2023-03-14T16:50:44.586Z,97834.73
2023-03-14T16:53:16.655Z,97836.18
2023-03-14T16:55:49.075Z,97831.20
2023-03-14T16:58:22.176Z,97833.28
2023-03-14T17:00:54.689Z,97840.02
2023-03-14T17:03:28.189Z,97836.08
2023-03-14T17:06:00.432Z,97836.73
2023-03-14T17:08:32.949Z,97842.33
2023-03-14T17:11:05.311Z,97834.38
2023-03-14T17:13:37.791Z,97839.35
2023-03-14T17:16:10.978Z,97839.54
2023-03-14T17:18:43.472Z,97837.85
2023-03-14T17:21:15.794Z,97848.30
2023-03-14T17:23:48.056Z,97856.17
2023-03-14T17:26:20.777Z,97862.35
2023-03-14T17:28:53.151Z,97865.31
2023-03-14T17:31:25.314Z,97868.60
2023-03-14T17:33:57.598Z,97870.30
2023-03-14T17:36:31.112Z,97878.04
2023-03-14T17:39:03.745Z,97879.25
2023-03-14T17:41:36.368Z,97883.89
2023-03-14T17:44:10.551Z,97886.69
2023-03-14T17:46:42.832Z,97894.13
2023-03-14T17:49:15.350Z,97903.08
2023-03-14T17:51:47.507Z,97908.06
2023-03-14T17:54:19.777Z,97911.34
2023-03-14T17:56:51.843Z,97911.19
2023-03-14T17:59:24.108Z,97914.14
2023-03-14T18:01:56.264Z,97918.98
2023-03-14T18:04:29.019Z,97920.04
2023-03-14T18:07:01.448Z,97926.76
2023-03-14T18:09:33.871Z,97928.11
2023-03-14T18:12:08.374Z,97930.67
2023-03-14T18:14:44.520Z,97927.38
2023-03-14T18:17:16.688Z,97925.14
2023-03-14T18:19:49.554Z,97925.33
2023-03-14T18:22:22.098Z,97928.10
2023-03-14T18:24:54.779Z,97936.20
2023-03-14T18:27:27.290Z,97931.55
2023-03-14T18:29:59.511Z,97935.19
2023-03-14T18:32:31.675Z,97935.55
2023-03-14T18:35:03.812Z,97939.70
2023-03-14T18:37:35.919Z,97932.70
2023-03-14T18:40:13.821Z,97928.22
2023-03-14T18:42:46.196Z,97919.10
2023-03-14T18:45:18.531Z,97908.30
2023-03-14T18:47:50.960Z,97910.05
2023-03-14T18:50:23.382Z,97909.91
2023-03-14T18:52:55.903Z,97914.05
2023-03-14T18:55:28.547Z,97920.76
2023-03-14T18:58:01.035Z,97920.09
2023-03-14T19:00:34.230Z,97931.28
2023-03-14T19:03:06.810Z,97935.26
2023-03-14T19:05:44.437Z,97933.56
2023-03-14T19:08:16.900Z,97935.28
2023-03-14T19:10:49.115Z,97937.19
2023-03-14T19:13:21.389Z,97934.28
2023-03-14T19:15:53.575Z,97935.67
2023-03-14T19:18:26.598Z,97933.80
2023-03-14T19:21:04.674Z,97938.28
2023-03-14T19:23:39.611Z,97939.34
2023-03-14T19:26:12.025Z,97947.63
2023-03-14T19:28:44.454Z,97941.45
2023-03-14T19:31:16.768Z,97947.31
2023-03-14T19:33:49.393Z,97952.29
2023-03-14T19:36:26.061Z,97957.79
2023-03-14T19:39:02.019Z,97957.81
2023-03-14T19:41:35.360Z,97957.83
2023-03-14T19:44:08.677Z,97954.94
2023-03-14T19:46:41.647Z,97956.84
2023-03-14T19:49:13.924Z,97962.70
2023-03-14T19:51:46.478Z,97964.77
2023-03-14T19:54:18.918Z,97965.83
2023-03-14T19:56:51.541Z,97972.52
2023-03-14T19:59:24.978Z,97975.27
2023-03-14T20:01:58.560Z,97987.61
2023-03-14T20:04:31.392Z,97994.48
2023-03-14T20:07:04.917Z,97995.50
2023-03-14T20:09:37.247Z,97993.96
2023-03-14T20:12:10.632Z,97997.91
2023-03-14T20:14:43.535Z,98003.57
2023-03-14T20:17:15.942Z,98004.27
2023-03-14T20:19:48.348Z,97998.26
2023-03-14T20:22:20.774Z,97999.30
2023-03-14T20:24:53.703Z,98003.27
2023-03-14T20:27:26.024Z,98006.55
2023-03-14T20:30:02.316Z,98014.63
2023-03-14T20:32:34.715Z,98014.12
2023-03-14T20:35:07.658Z,98013.96
2023-03-14T20:37:41.664Z,98007.09
2023-03-14T20:40:15.617Z,98016.02
2023-03-14T20:42:47.806Z,98013.09
2023-03-14T20:45:20.379Z,98014.81
2023-03-14T20:47:52.634Z,98020.66
2023-03-14T20:50:25.498Z,98035.92
2023-03-14T20:52:57.878Z,98048.80
2023-03-14T20:55:30.457Z,98052.92
2023-03-14T20:58:03.022Z,98050.69
2023-03-14T21:00:35.175Z,98056.52
2023-03-14T21:03:08.471Z,98063.90
2023-03-14T21:05:44.387Z,98066.98
2023-03-14T21:08:17.524Z,98070.08
2023-03-14T21:10:51.349Z,98078.31
2023-03-14T21:13:23.426Z,98081.90
2023-03-14T21:15:55.754Z,98091.16
2023-03-14T21:18:28.052Z,98095.96
2023-03-14T21:21:00.722Z,98096.99
2023-03-14T21:23:34.652Z,98099.06
2023-03-14T21:26:06.812Z,98100.95
2023-03-14T21:28:38.861Z,98103.00
2023-03-14T21:31:12.529Z,98102.64
2023-03-14T21:33:44.761Z,98102.31
2023-03-14T21:36:16.834Z,98105.38
2023-03-14T21:38:48.869Z,98108.98
2023-03-14T21:41:20.937Z,98118.94
2023-03-14T21:43:53.916Z,98130.10
2023-03-14T21:46:26.551Z,98187.25
2023-03-14T21:48:58.599Z,98198.58
2023-03-14T21:51:31.336Z,98223.12
2023-03-14T21:54:10.133Z,98241.46
2023-03-14T21:56:42.947Z,98260.46
2023-03-14T21:59:15.845Z,98270.17
2023-03-14T22:01:47.983Z,98280.06
2023-03-14T22:04:26.349Z,98287.70
2023-03-14T22:06:58.394Z,98291.90
2023-03-14T22:09:30.990Z,98290.94
2023-03-14T22:12:03.340Z,98307.27
2023-03-14T22:14:36.256Z,98315.41
2023-03-14T22:17:08.337Z,98326.63
2023-03-14T22:19:40.574Z,98345.21
2023-03-14T22:22:12.841Z,98355.75
2023-03-14T22:24:45.020Z,98370.92
2023-03-14T22:27:17.194Z,98381.98
2023-03-14T22:29:49.336Z,98389.73
2023-03-14T22:32:23.116Z,98392.52
2023-03-14T22:34:55.201Z,98416.55
2023-03-14T22:37:27.327Z,98431.60
2023-03-14T22:39:59.450Z,98438.83
2023-03-14T22:42:31.641Z,98453.49
2023-03-14T22:45:03.705Z,98458.02
2023-03-14T22:47:35.853Z,98472.29
2023-03-14T22:50:09.159Z,98484.98
2023-03-14T22:52:41.200Z,98491.61
2023-03-14T22:55:13.618Z,98512.36
2023-03-14T22:57:45.901Z,98526.77
2023-03-14T23:00:18.846Z,98538.59
2023-03-14T23:02:50.985Z,98543.57
2023-03-14T23:05:23.437Z,98554.02
2023-03-14T23:07:55.486Z,98551.42
2023-03-14T23:10:28.437Z,98561.36
2023-03-14T23:13:00.494Z,98568.51
2023-03-14T23:15:33.914Z,98571.64
2023-03-14T23:18:05.996Z,98587.32
2023-03-14T23:20:39.583Z,98594.48
2023-03-14T23:23:13.793Z,98588.30
2023-03-14T23:25:53.450Z,98587.65
2023-03-14T23:28:26.245Z,98596.04
2023-03-14T23:30:59.723Z,98610.50
2023-03-14T23:33:32.194Z,98618.25
2023-03-14T23:36:08.481Z,98625.36
2023-03-14T23:38:41.444Z,98642.04
2023-03-14T23:41:14.675Z,98641.35
2023-03-14T23:43:48.758Z,98650.39
2023-03-14T23:46:21.882Z,98662.38
2023-03-14T23:48:55.123Z,98670.15
2023-03-14T23:51:28.212Z,98671.67
2023-03-14T23:54:00.412Z,98680.34
2023-03-14T23:56:32.500Z,98699.83
2023-03-14T23:59:04.535Z,98715.31
